createdAt,value
2023-01-04T00:02:27.585Z,80.11
2023-01-04T00:04:59.628Z,80.12
2023-01-04T00:07:32.598Z,79.76
2023-01-04T00:10:04.968Z,79.42
2023-01-04T00:12:37.466Z,79.57
2023-01-04T00:15:10.205Z,79.42
2023-01-04T00:17:42.327Z,79.47
2023-01-04T00:20:14.658Z,78.82
2023-01-04T00:22:46.904Z,78.83
2023-01-04T00:25:18.946Z,78.91
2023-01-04T00:27:52.739Z,78.95
2023-01-04T00:30:24.777Z,78.99
2023-01-04T00:32:58.145Z,79.14
2023-01-04T00:35:45.304Z,79.31
2023-01-04T00:38:04.035Z,79.57
2023-01-04T00:40:36.198Z,79.33
2023-01-04T00:43:08.150Z,79.24
2023-01-04T00:45:40.319Z,78.28
2023-01-04T00:48:12.708Z,78.12
2023-01-04T00:50:46.399Z,78.09
2023-01-04T00:53:19.197Z,78.21
2023-01-04T00:55:51.401Z,78.28
2023-01-04T00:58:23.427Z,78.20
2023-01-04T01:00:55.495Z,78.28
2023-01-04T01:03:30.073Z,78.15
2023-01-04T01:06:05.967Z,78.42
2023-01-04T01:08:38.212Z,77.92
2023-01-04T01:11:12.220Z,77.80
2023-01-04T01:13:44.412Z,77.97
2023-01-04T01:16:37.857Z,77.62
2023-01-04T01:18:54.489Z,77.50
2023-01-04T01:21:29.282Z,77.34
2023-01-04T01:24:01.190Z,77.53
2023-01-04T01:26:34.423Z,76.47
2023-01-04T01:29:08.074Z,76.70
2023-01-04T01:31:41.338Z,76.20
2023-01-04T01:34:13.352Z,75.41
2023-01-04T01:36:45.784Z,74.27
2023-01-04T01:39:18.060Z,74.53
2023-01-04T01:41:50.208Z,74.43
2023-01-04T01:44:47.232Z,74.44
2023-01-04T01:47:28.034Z,74.58
2023-01-04T01:50:01.117Z,74.94
2023-01-04T01:52:36.044Z,75.05
2023-01-04T01:55:10.900Z,75.14
2023-01-04T01:57:44.026Z,74.96
2023-01-04T02:00:17.044Z,74.94
2023-01-04T02:03:12.081Z,74.62
2023-01-04T02:05:45.653Z,74.41
2023-01-04T02:08:18.665Z,74.23
2023-01-04T02:10:51.139Z,74.41
2023-01-04T02:13:26.072Z,74.39
2023-01-04T02:16:07.072Z,74.54
2023-01-04T02:18:47.613Z,74.44
2023-01-04T02:21:22.520Z,74.41
2023-01-04T02:24:16.795Z,74.56
2023-01-04T02:27:03.387Z,74.87
2023-01-04T02:29:38.302Z,74.90
2023-01-04T02:32:16.016Z,74.13
2023-01-04T02:34:56.452Z,74.44
2023-01-04T02:37:51.632Z,74.46
2023-01-04T02:40:48.892Z,74.51
2023-01-04T02:43:55.988Z,74.12
2023-01-04T02:46:33.683Z,74.42
2023-01-04T02:49:23.391Z,74.47
2023-01-04T02:51:55.689Z,74.52
2023-01-04T02:54:32.328Z,74.18
2023-01-04T02:57:25.445Z,74.45
2023-01-04T03:00:15.053Z,74.81
2023-01-04T03:03:39.567Z,74.74
2023-01-04T03:06:20.151Z,74.75
2023-01-04T03:09:00.890Z,74.70
2023-01-04T03:12:08.092Z,74.55
2023-01-04T03:14:43.042Z,74.47
2023-01-04T03:17:18.301Z,74.61
2023-01-04T03:19:52.146Z,74.62
2023-01-04T03:22:47.548Z,74.58
2023-01-04T03:25:40.075Z,74.83
2023-01-04T03:28:32.629Z,74.79
2023-01-04T03:31:31.024Z,74.64
2023-01-04T03:34:20.966Z,74.59
2023-01-04T03:36:58.664Z,74.71
2023-01-04T03:40:12.217Z,74.14
2023-01-04T03:43:16.238Z,74.25
2023-01-04T03:46:09.005Z,74.09
2023-01-04T03:48:55.695Z,73.94
2023-01-04T03:51:33.291Z,74.03
2023-01-04T03:54:11.976Z,74.07
2023-01-04T03:56:46.257Z,74.43
2023-01-04T03:59:18.187Z,74.30
2023-01-04T04:01:50.629Z,74.26
2023-01-04T04:04:40.294Z,74.35
2023-01-04T04:07:30.549Z,74.43
2023-01-04T04:10:02.679Z,74.56
2023-01-04T04:12:34.617Z,74.67
2023-01-04T04:15:07.481Z,74.72
2023-01-04T04:17:39.535Z,74.75
2023-01-04T04:20:13.352Z,74.71
2023-01-04T04:22:45.581Z,74.88
2023-01-04T04:25:17.613Z,74.63
2023-01-04T04:27:49.820Z,74.55
2023-01-04T04:30:22.389Z,74.48
2023-01-04T04:32:54.556Z,74.77
2023-01-04T04:35:26.577Z,74.79
2023-01-04T04:37:58.740Z,75.00
2023-01-04T04:40:48.470Z,74.96
2023-01-04T04:43:20.556Z,74.69
2023-01-04T04:45:52.570Z,74.55
2023-01-04T04:48:24.551Z,74.44
2023-01-04T04:50:56.551Z,74.18
2023-01-04T04:53:28.522Z,74.17
2023-01-04T04:56:00.596Z,74.31
2023-01-04T04:58:32.593Z,74.36
2023-01-04T05:01:05.261Z,74.69
2023-01-04T05:03:37.935Z,74.69
2023-01-04T05:06:10.160Z,74.91
2023-01-04T05:08:42.255Z,74.70
2023-01-04T05:11:14.670Z,74.53
2023-01-04T05:13:46.649Z,74.33
2023-01-04T05:16:18.730Z,74.07
2023-01-04T05:18:50.660Z,73.88
2023-01-04T05:21:22.662Z,73.13
2023-01-04T05:23:54.673Z,72.73
2023-01-04T05:26:26.665Z,72.62
2023-01-04T05:28:58.697Z,72.53
2023-01-04T05:31:31.509Z,72.43
2023-01-04T05:34:03.872Z,72.52
2023-01-04T05:36:36.084Z,72.73
2023-01-04T05:39:08.424Z,72.94
2023-01-04T05:41:57.957Z,72.45
2023-01-04T05:44:29.873Z,72.26
2023-01-04T05:47:01.868Z,71.26
2023-01-04T05:49:33.849Z,71.31
2023-01-04T05:52:06.032Z,70.90
2023-01-04T05:54:37.943Z,71.03
2023-01-04T05:57:10.498Z,71.38
2023-01-04T05:59:42.786Z,71.80
2023-01-04T06:02:20.201Z,71.69
2023-01-04T06:04:58.524Z,71.89
2023-01-04T06:07:26.969Z,71.68
2023-01-04T06:09:59.845Z,71.84
2023-01-04T06:12:32.538Z,72.11
2023-01-04T06:15:05.058Z,72.28
2023-01-04T06:17:38.253Z,72.44
2023-01-04T06:20:11.522Z,72.53
2023-01-04T06:22:43.844Z,72.77
2023-01-04T06:25:16.068Z,72.63
2023-01-04T06:27:48.065Z,72.73
2023-01-04T06:30:20.187Z,72.73
2023-01-04T06:32:52.714Z,72.81
2023-01-04T06:35:24.902Z,72.75
2023-01-04T06:37:57.131Z,73.23
2023-01-04T06:40:29.153Z,73.12
2023-01-04T06:43:01.261Z,73.08
2023-01-04T06:45:33.213Z,73.24
2023-01-04T06:48:09.103Z,73.31
2023-01-04T06:50:39.192Z,73.48
2023-01-04T06:53:11.394Z,73.80
2023-01-04T06:55:45.309Z,73.46
2023-01-04T06:58:17.319Z,73.33
2023-01-04T07:00:50.051Z,73.27
2023-01-04T07:03:22.825Z,73.57
2023-01-04T07:05:54.897Z,73.21
2023-01-04T07:08:27.235Z,72.83
2023-01-04T07:10:59.365Z,72.61
2023-01-04T07:13:31.431Z,72.32
2023-01-04T07:16:03.565Z,71.90
2023-01-04T07:18:35.613Z,72.20
2023-01-04T07:21:07.840Z,72.38
2023-01-04T07:23:39.842Z,72.22
2023-01-04T07:26:11.825Z,72.20
2023-01-04T07:29:01.616Z,72.23
2023-01-04T07:31:34.184Z,71.75
2023-01-04T07:34:06.314Z,71.92
2023-01-04T07:36:38.324Z,71.43
2023-01-04T07:39:12.751Z,70.99
2023-01-04T07:41:45.639Z,70.81
2023-01-04T07:44:18.778Z,70.95
2023-01-04T07:46:51.320Z,70.80
2023-01-04T07:49:23.399Z,70.05
2023-01-04T07:51:55.309Z,70.69
2023-01-04T07:54:27.463Z,70.15
2023-01-04T07:56:59.989Z,70.29
2023-01-04T07:59:32.342Z,70.17
2023-01-04T08:02:04.715Z,69.86
2023-01-04T08:04:37.479Z,69.15
2023-01-04T08:07:09.948Z,68.79
2023-01-04T08:09:42.128Z,68.53
2023-01-04T08:12:14.097Z,68.61
2023-01-04T08:14:46.285Z,68.57
2023-01-04T08:17:18.755Z,68.87
2023-01-04T08:19:50.734Z,68.94
2023-01-04T08:22:22.730Z,68.95
2023-01-04T08:24:54.930Z,69.53
2023-01-04T08:27:27.686Z,68.98
2023-01-04T08:30:00.156Z,69.32
2023-01-04T08:32:33.323Z,69.86
2023-01-04T08:35:06.061Z,70.09
2023-01-04T08:37:38.044Z,70.02
2023-01-04T08:40:11.219Z,70.32
2023-01-04T08:42:44.405Z,70.50
2023-01-04T08:45:17.008Z,70.79
2023-01-04T08:47:49.038Z,70.80
2023-01-04T08:50:21.903Z,70.41
2023-01-04T08:52:54.030Z,70.33
2023-01-04T08:55:26.047Z,70.37
2023-01-04T08:57:58.207Z,70.83
2023-01-04T09:00:30.486Z,70.27
2023-01-04T09:03:03.278Z,69.81
2023-01-04T09:05:35.325Z,69.06
2023-01-04T09:08:07.601Z,68.56
2023-01-04T09:10:40.825Z,68.28
2023-01-04T09:13:12.899Z,68.93
2023-01-04T09:15:45.668Z,69.21
2023-01-04T09:18:33.570Z,68.62
2023-01-04T09:20:51.530Z,67.87
2023-01-04T09:23:24.223Z,68.30
2023-01-04T09:25:56.781Z,68.62
2023-01-04T09:28:28.878Z,68.60
2023-01-04T09:31:02.857Z,68.98
2023-01-04T09:34:04.007Z,68.93
2023-01-04T09:36:10.178Z,68.74
2023-01-04T09:38:42.804Z,68.71
2023-01-04T09:41:23.510Z,68.41
2023-01-04T09:44:04.809Z,68.59
2023-01-04T09:46:45.629Z,68.18
2023-01-04T09:49:35.773Z,68.76
2023-01-04T09:52:23.191Z,68.20
2023-01-04T09:55:38.138Z,68.52
2023-01-04T09:57:46.956Z,68.48
2023-01-04T10:00:24.274Z,68.04
2023-01-04T10:03:08.344Z,67.77
2023-01-04T10:05:42.562Z,67.70
2023-01-04T10:08:18.437Z,67.35
2023-01-04T10:11:05.075Z,67.51
2023-01-04T10:13:55.126Z,66.37
2023-01-04T10:17:12.605Z,66.52
2023-01-04T10:22:52.692Z,66.44
2023-01-04T10:25:33.429Z,66.03
2023-01-04T10:28:17.146Z,66.44
2023-01-04T10:31:39.514Z,66.63
2023-01-04T10:33:57.448Z,66.37
2023-01-04T10:36:34.657Z,66.38
2023-01-04T10:39:10.242Z,66.57
2023-01-04T10:41:45.074Z,66.40
2023-01-04T10:44:41.873Z,66.19
2023-01-04T10:47:19.624Z,66.34
2023-01-04T10:50:00.868Z,67.38
2023-01-04T10:52:36.165Z,67.17
2023-01-04T10:55:20.158Z,67.12
2023-01-04T10:57:55.175Z,67.24
2023-01-04T11:00:33.217Z,67.79
2023-01-04T11:03:32.362Z,67.94
2023-01-04T11:06:10.040Z,67.51
2023-01-04T11:08:54.392Z,67.81
2023-01-04T11:11:35.353Z,67.74
2023-01-04T11:14:07.811Z,68.04
2023-01-04T11:16:43.152Z,67.81
2023-01-04T11:19:15.994Z,67.77
2023-01-04T11:22:16.384Z,67.24
2023-01-04T11:25:33.163Z,67.00
2023-01-04T11:27:30.840Z,66.42
2023-01-04T11:30:08.962Z,66.76
2023-01-04T11:32:44.411Z,65.66
2023-01-04T11:35:16.423Z,64.36
2023-01-04T11:37:48.537Z,64.41
2023-01-04T11:40:23.894Z,64.86
2023-01-04T11:43:13.779Z,64.83
2023-01-04T11:46:03.987Z,64.49
2023-01-04T11:48:45.100Z,64.45
2023-01-04T11:51:31.971Z,64.47
2023-01-04T11:54:15.884Z,64.47
2023-01-04T11:57:11.852Z,65.55
2023-01-04T11:59:40.920Z,65.61
2023-01-04T12:05:00.844Z,66.33
2023-01-04T12:07:36.945Z,66.60
2023-01-04T12:10:25.208Z,66.24
2023-01-04T12:12:59.384Z,65.92
2023-01-04T12:15:34.774Z,65.95
2023-01-04T12:18:09.382Z,66.60
2023-01-04T12:20:41.646Z,65.87
2023-01-04T12:23:14.800Z,66.12
2023-01-04T12:25:53.039Z,66.16
2023-01-04T12:28:36.770Z,65.33
2023-01-04T12:31:23.959Z,65.53
2023-01-04T12:33:58.265Z,65.83
2023-01-04T12:36:43.279Z,66.56
2023-01-04T12:39:18.012Z,66.92
2023-01-04T12:42:01.949Z,66.74
2023-01-04T12:44:50.384Z,66.85
2023-01-04T12:47:48.731Z,67.50
2023-01-04T12:50:31.317Z,67.38
2023-01-04T12:55:44.344Z,66.03
2023-01-04T12:59:14.916Z,66.03
2023-01-04T13:01:11.562Z,66.58
2023-01-04T13:03:46.491Z,67.19
2023-01-04T13:06:21.406Z,67.07
2023-01-04T13:08:54.243Z,67.53
2023-01-04T13:11:52.209Z,67.26
2023-01-04T13:14:33.092Z,67.18
2023-01-04T13:17:20.567Z,67.21
2023-01-04T13:19:53.092Z,67.29
2023-01-04T13:22:33.761Z,67.17
2023-01-04T13:25:09.084Z,66.73
2023-01-04T13:27:42.795Z,67.46
2023-01-04T13:30:31.892Z,67.19
2023-01-04T13:33:26.704Z,67.21
2023-01-04T13:36:07.046Z,66.77
2023-01-04T13:38:43.406Z,66.30
2023-01-04T13:41:21.540Z,66.42
2023-01-04T13:43:59.306Z,66.82
2023-01-04T13:46:32.467Z,67.06
2023-01-04T13:49:05.304Z,67.44
2023-01-04T13:51:38.418Z,67.26
2023-01-04T13:54:22.834Z,66.60
2023-01-04T13:56:56.057Z,67.05
2023-01-04T13:59:27.959Z,66.52
2023-01-04T14:02:00.080Z,65.99
2023-01-04T14:04:34.211Z,66.55
2023-01-04T14:07:05.681Z,67.31
2023-01-04T14:09:53.886Z,67.29
2023-01-04T14:12:28.421Z,66.82
2023-01-04T14:15:26.192Z,67.03
2023-01-04T14:17:59.241Z,67.65
2023-01-04T14:20:34.254Z,67.42
2023-01-04T14:23:06.701Z,67.68
2023-01-04T14:25:43.463Z,67.75
2023-01-04T14:28:29.747Z,67.80
2023-01-04T14:31:06.517Z,67.79
2023-01-04T14:33:44.720Z,67.80
2023-01-04T14:36:32.566Z,68.14
2023-01-04T14:39:13.700Z,68.11
2023-01-04T14:41:55.186Z,68.12
2023-01-04T14:44:31.249Z,68.46
2023-01-04T14:47:07.931Z,67.23
2023-01-04T14:49:40.128Z,67.49
2023-01-04T14:52:15.621Z,67.57
2023-01-04T14:54:47.653Z,67.95
2023-01-04T14:57:21.423Z,68.04
2023-01-04T14:59:53.483Z,67.97
2023-01-04T15:02:27.375Z,68.17
2023-01-04T15:04:59.002Z,68.79
2023-01-04T15:07:39.461Z,68.93
2023-01-04T15:10:26.575Z,68.69
2023-01-04T15:13:00.123Z,68.33
2023-01-04T15:15:34.368Z,68.37
2023-01-04T15:18:06.464Z,68.42
2023-01-04T15:20:40.624Z,67.92
2023-01-04T15:23:12.658Z,68.21
2023-01-04T15:25:44.955Z,68.35
2023-01-04T15:28:17.200Z,68.52
2023-01-04T15:30:49.236Z,68.34
2023-01-04T15:33:21.767Z,68.44
2023-01-04T15:36:05.581Z,68.78
2023-01-04T15:38:37.465Z,68.64
2023-01-04T15:41:13.871Z,68.45
2023-01-04T15:43:45.769Z,69.01
2023-01-04T15:46:17.964Z,69.29
2023-01-04T15:48:49.997Z,69.78
2023-01-04T15:51:22.201Z,69.97
2023-01-04T15:53:54.704Z,70.00
2023-01-04T15:56:27.018Z,70.12
2023-01-04T15:58:59.237Z,70.35
2023-01-04T16:01:31.613Z,70.54
2023-01-04T16:04:05.401Z,70.94
2023-01-04T16:06:37.321Z,71.02
2023-01-04T16:09:09.535Z,71.07
2023-01-04T16:12:02.423Z,71.51
2023-01-04T16:14:34.396Z,71.65
2023-01-04T16:17:06.728Z,71.80
2023-01-04T16:19:38.628Z,71.79
2023-01-04T16:22:11.214Z,72.01
2023-01-04T16:27:17.253Z,72.36
2023-01-04T16:29:53.475Z,72.26
2023-01-04T16:32:25.465Z,72.24
2023-01-04T16:34:57.407Z,72.58
2023-01-04T16:37:30.838Z,72.83
2023-01-04T16:40:07.844Z,73.13
2023-01-04T16:42:38.140Z,73.18
2023-01-04T16:45:11.040Z,73.57
2023-01-04T16:47:44.358Z,73.77
2023-01-04T16:50:16.801Z,73.67
2023-01-04T16:52:48.920Z,74.01
2023-01-04T16:55:23.983Z,74.18
2023-01-04T16:57:54.843Z,74.17
2023-01-04T17:00:27.231Z,74.19
2023-01-04T17:02:59.307Z,74.22
2023-01-04T17:05:31.460Z,74.57
2023-01-04T17:08:03.726Z,74.73
2023-01-04T17:10:37.558Z,74.92
2023-01-04T17:13:09.595Z,74.95
2023-01-04T17:15:43.376Z,75.14
2023-01-04T17:18:17.188Z,75.49
2023-01-04T17:20:52.151Z,75.56
2023-01-04T17:23:26.319Z,75.69
2023-01-04T17:26:03.938Z,75.80
2023-01-04T17:28:36.785Z,75.75
2023-01-04T17:31:11.323Z,75.82
2023-01-04T17:33:43.551Z,75.97
2023-01-04T17:36:17.845Z,76.09
2023-01-04T17:38:50.414Z,76.20
2023-01-04T17:41:24.796Z,76.46
2023-01-04T17:44:02.036Z,76.87
2023-01-04T17:46:37.207Z,76.74
2023-01-04T17:49:31.870Z,76.73
2023-01-04T17:51:46.441Z,76.75
2023-01-04T17:54:18.833Z,76.66
2023-01-04T17:56:50.841Z,76.89
2023-01-04T17:59:23.017Z,76.90
2023-01-04T18:01:55.176Z,76.94
2023-01-04T18:04:27.282Z,77.00
2023-01-04T18:06:59.652Z,77.09
2023-01-04T18:09:31.665Z,77.20
2023-01-04T18:12:03.930Z,77.20
2023-01-04T18:14:35.973Z,77.41
2023-01-04T18:17:08.175Z,77.36
2023-01-04T18:19:44.562Z,77.52
2023-01-04T18:22:14.148Z,77.57
2023-01-04T18:24:46.183Z,77.64
2023-01-04T18:27:26.442Z,77.71
2023-01-04T18:29:52.435Z,77.67
2023-01-04T18:32:26.234Z,77.67
2023-01-04T18:34:58.451Z,77.64
2023-01-04T18:37:30.496Z,77.61
2023-01-04T18:40:05.963Z,77.76
2023-01-04T18:42:38.355Z,77.86
2023-01-04T18:45:10.442Z,77.97
2023-01-04T18:47:42.555Z,77.94
2023-01-04T18:50:15.279Z,78.04
2023-01-04T18:52:47.202Z,78.09
2023-01-04T18:55:19.407Z,78.29
2023-01-04T18:57:51.398Z,78.25
2023-01-04T19:00:25.034Z,78.33
2023-01-04T19:02:58.496Z,78.40
2023-01-04T19:05:30.541Z,78.65
2023-01-04T19:08:02.884Z,78.61
2023-01-04T19:10:35.726Z,78.58
2023-01-04T19:13:18.984Z,78.72
2023-01-04T19:15:50.929Z,78.71
2023-01-04T19:18:22.940Z,78.92
2023-01-04T19:20:55.631Z,78.90
2023-01-04T19:23:27.821Z,79.22
2023-01-04T19:25:59.892Z,78.68
2023-01-04T19:28:32.003Z,78.74
2023-01-04T19:31:09.174Z,78.60
2023-01-04T19:33:41.682Z,78.76
2023-01-04T19:36:15.515Z,78.87
2023-01-04T19:38:47.425Z,78.89
2023-01-04T19:41:29.146Z,79.11
2023-01-04T19:43:56.881Z,79.20
2023-01-04T19:46:28.808Z,79.35
2023-01-04T19:49:00.832Z,79.53
2023-01-04T19:51:33.026Z,79.60
2023-01-04T19:54:04.957Z,79.45
2023-01-04T19:56:36.968Z,79.33
2023-01-04T19:59:09.171Z,79.41
2023-01-04T20:01:41.264Z,79.47
2023-01-04T20:04:14.124Z,79.50
2023-01-04T20:06:46.084Z,79.40
2023-01-04T20:09:19.707Z,79.44
2023-01-04T20:11:51.675Z,79.27
2023-01-04T20:14:23.676Z,79.13
2023-01-04T20:16:56.069Z,79.06
2023-01-04T20:19:28.028Z,79.14
2023-01-04T20:21:59.996Z,79.36
2023-01-04T20:24:31.787Z,79.49
2023-01-04T20:27:03.656Z,79.62
2023-01-04T20:29:35.704Z,79.52
2023-01-04T20:32:07.787Z,79.71
2023-01-04T20:34:39.711Z,79.74
2023-01-04T20:37:11.778Z,80.08
2023-01-04T20:39:43.888Z,79.93
2023-01-04T20:42:29.627Z,79.96
2023-01-04T20:45:01.557Z,79.97
2023-01-04T20:47:33.452Z,79.92
2023-01-04T20:50:05.610Z,80.06
2023-01-04T20:52:38.109Z,80.08
2023-01-04T20:55:15.507Z,80.15
2023-01-04T20:57:43.815Z,80.19
2023-01-04T21:00:16.404Z,80.28
2023-01-04T21:02:48.648Z,80.31
2023-01-04T21:05:20.709Z,80.45
2023-01-04T21:07:52.575Z,80.58
2023-01-04T21:10:24.890Z,80.60
2023-01-04T21:12:56.883Z,80.79
2023-01-04T21:15:29.020Z,80.77
2023-01-04T21:18:00.971Z,80.95
2023-01-04T21:20:33.050Z,80.96
2023-01-04T21:23:05.016Z,81.01
2023-01-04T21:25:41.063Z,81.09
2023-01-04T21:28:14.439Z,81.03
2023-01-04T21:30:47.593Z,81.18
2023-01-04T21:33:19.599Z,80.87
2023-01-04T21:35:51.502Z,80.66
2023-01-04T21:38:23.957Z,80.69
2023-01-04T21:40:55.842Z,80.84
2023-01-04T21:43:27.756Z,80.88
2023-01-04T21:46:01.229Z,80.99
2023-01-04T21:48:33.289Z,81.02
2023-01-04T21:51:06.858Z,81.04
2023-01-04T21:53:40.264Z,81.08
2023-01-04T21:56:15.074Z,81.01
2023-01-04T21:58:47.302Z,80.63
2023-01-04T22:01:22.453Z,80.58
2023-01-04T22:03:54.543Z,80.52
2023-01-04T22:06:26.678Z,80.65
2023-01-04T22:08:58.807Z,80.77
2023-01-04T22:11:30.978Z,80.55
2023-01-04T22:14:03.297Z,80.73
2023-01-04T22:16:35.418Z,80.71
2023-01-04T22:19:07.768Z,80.71
2023-01-04T22:21:40.253Z,80.76
2023-01-04T22:24:15.970Z,80.79
2023-01-04T22:26:49.477Z,80.34
2023-01-04T22:29:22.529Z,80.30
2023-01-04T22:31:54.625Z,80.33
2023-01-04T22:34:28.139Z,80.32
2023-01-04T22:37:00.172Z,80.33
2023-01-04T22:39:32.220Z,80.32
2023-01-04T22:42:04.241Z,80.16
2023-01-04T22:44:36.743Z,80.28
2023-01-04T22:47:08.641Z,80.45
2023-01-04T22:49:40.516Z,80.31
2023-01-04T22:52:12.781Z,80.45
2023-01-04T22:54:44.722Z,80.66
2023-01-04T22:57:16.698Z,80.87
2023-01-04T22:59:48.639Z,80.77
2023-01-04T23:02:20.523Z,80.62
2023-01-04T23:04:52.436Z,80.51
2023-01-04T23:07:24.534Z,80.32
2023-01-04T23:09:56.549Z,79.81
2023-01-04T23:12:28.568Z,79.75
2023-01-04T23:15:00.427Z,79.41
2023-01-04T23:17:33.253Z,79.67
2023-01-04T23:20:10.264Z,79.43
2023-01-04T23:22:38.757Z,79.68
2023-01-04T23:25:10.485Z,79.49
2023-01-04T23:27:47.611Z,78.87
2023-01-04T23:30:19.503Z,79.22
2023-01-04T23:32:51.426Z,79.26
2023-01-04T23:35:23.646Z,79.57
2023-01-04T23:37:55.898Z,79.57
2023-01-04T23:40:27.821Z,79.81
2023-01-04T23:42:59.832Z,79.97
2023-01-04T23:45:31.778Z,79.99
2023-01-04T23:48:03.673Z,80.04
2023-01-04T23:50:35.613Z,80.10
2023-01-04T23:53:07.559Z,80.45
2023-01-04T23:55:39.635Z,80.23
2023-01-04T23:58:11.638Z,80.36
